Flight Track Log - Related Links

Times and Time Zones

All times are in EDT time to prevent confusion due to time zone crossing. See the UPS2843 flight status page for this flight to view local times or setup timezone preferences in your user account.

Time Position Orientation Groundspeed Altitude Reporting Facility
EDT Latitude Longitude Course Direction KTS MPH feet Rate Location/Type
Sun 07:59:22 AM 39.8774 -104.6380 78° East 62 71 5,100  Level FlightAware ADS-B
Sun 07:59:38 AM 39.8776 -104.6210 89° East 177 204 5,900 2,813 Climbing FlightAware ADS-B
Sun 07:59:54 AM 39.8780 -104.6050 88° East 182 209 6,600 2,625 Climbing FlightAware ADS-B
Sun 08:00:10 AM 39.8786 -104.5860 88° East 189 217 7,300 2,400 Climbing FlightAware ADS-B
Sun 08:00:24 AM 39.8790 -104.5690 88° East 205 236 7,800 1,742 Climbing FlightAware ADS-B
Sun 08:00:41 AM 39.8797 -104.5480 88° East 230 265 8,200 1,500 Climbing FlightAware ADS-B
Sun 08:00:56 AM 39.8807 -104.5240 87° East 249 287 8,600 1,548 Climbing FlightAware ADS-B
Sun 08:01:12 AM 39.8818 -104.5010 86° East 277 319 9,000 2,516 Climbing FlightAware ADS-B
Sun 08:01:27 AM 39.8830 -104.4730 87° East 284 327 9,900 3,600 Climbing FlightAware ADS-B
Sun 08:01:42 AM 39.8838 -104.4500 87° East 284 327 10,800 3,273 Climbing FlightAware ADS-B
Sun 08:01:49 AM 39.8831 -104.4360 94° East 287 330 11,100 2,400 Climbing FlightAware ADS-B
Sun 08:02:02 AM 39.8803 -104.4130 99° East 301 346 11,600 1,953 Climbing FlightAware ADS-B
Sun 08:02:32 AM 39.8694 -104.3570 104° East 334 384 12,500 1,773 Climbing FlightAware ADS-B
Sun 08:02:46 AM 39.8639 -104.3290 104° East 351 404 12,900 1,565 Climbing FlightAware ADS-B
Sun 08:02:55 AM 39.8616 -104.3120 100° East 362 417 13,100 1,538 Climbing FlightAware ADS-B
Sun 08:03:25 AM 39.8584 -104.2410 93° East 397 457 13,900 1,967 Climbing FlightAware ADS-B
Sun 08:03:56 AM 39.8567 -104.1650 92° East 415 478 15,100 2,516 Climbing FlightAware ADS-B
Sun 08:04:27 AM 39.8551 -104.0900 92° East 423 487 16,500 2,656 Climbing FlightAware ADS-B
Sun 08:04:57 AM 39.8529 -104.0100 92° East 433 498 17,800 2,459 Climbing FlightAware ADS-B
Sun 08:05:28 AM 39.8504 -103.9280 92° East 444 511 19,000 2,323 Climbing FlightAware ADS-B
Sun 08:05:59 AM 39.8477 -103.8470 92° East 453 521 20,200 2,419 Climbing FlightAware ADS-B
Sun 08:06:30 AM 39.8450 -103.7620 92° East 458 527 21,500 2,361 Climbing FlightAware ADS-B
Sun 08:07:00 AM 39.8424 -103.6790 92° East 464 534 22,600 2,164 Climbing FlightAware ADS-B
Sun 08:07:31 AM 39.8391 -103.5920 93° East 472 543 23,700 1,967 Climbing FlightAware ADS-B
Sun 08:08:01 AM 39.8359 -103.5060 93° East 479 551 24,600 1,800 Climbing FlightAware ADS-B
Sun 08:08:31 AM 39.8328 -103.4170 93° East 488 562 25,500 1,672 Climbing FlightAware ADS-B
Sun 08:09:02 AM 39.8297 -103.3280 93° East 495 570 26,300 1,727 Climbing FlightAware ADS-B
Sun 08:09:37 AM 39.8258 -103.2200 93° East 500 575 27,400 2,000 Climbing FlightAware ADS-B
Sun 08:10:08 AM 39.8223 -103.1280 93° East 497 572 28,500 2,032 Climbing FlightAware ADS-B
Sun 08:10:39 AM 39.8187 -103.0360 93° East 497 572 29,500 1,548 Climbing FlightAware ADS-B
Sun 08:11:10 AM 39.8151 -102.9460 93° East 505 581 30,100 1,279 Climbing FlightAware ADS-B
Sun 08:11:40 AM 39.8113 -102.8540 93° East 510 587 30,800 1,500 Climbing FlightAware ADS-B
Sun 08:12:10 AM 39.8075 -102.7620 93° East 509 586 31,600 1,600 Climbing FlightAware ADS-B
Sun 08:12:40 AM 39.8036 -102.6680 93° East 511 588 32,400 1,300 Climbing FlightAware ADS-B
Sun 08:13:10 AM 39.7996 -102.5750 93° East 515 593 32,900 600 Climbing FlightAware ADS-B
Sun 08:13:40 AM 39.7955 -102.4820 93° East 518 596 33,000 98 Climbing FlightAware ADS-B
Sun 08:14:11 AM 39.7916 -102.3900 93° East 514 592 33,000  Level FlightAware ADS-B
Sun 08:14:41 AM 39.7874 -102.2970 93° East 512 589 33,000  Level FlightAware ADS-B
Sun 08:15:11 AM 39.7830 -102.2030 93° East 508 585 33,000  Level FlightAware ADS-B
Sun 08:15:42 AM 39.7787 -102.1120 93° East 505 581 33,000  Level FlightAware ADS-B
Sun 08:16:12 AM 39.7741 -102.0210 94° East 506 582 33,000  Level FlightAware ADS-B
Sun 08:16:48 AM 39.7686 -101.9090 94° East 507 583 33,000  Level FlightAware ADS-B
Sun 08:17:18 AM 39.7641 -101.8180 94° East 507 583 33,000  Level FlightAware ADS-B
Sun 08:17:48 AM 39.7596 -101.7270 94° East 505 581 33,000  Level FlightAware ADS-B
Sun 08:18:18 AM 39.7548 -101.6360 94° East 506 582 33,000  Level FlightAware ADS-B
Sun 08:18:49 AM 39.7500 -101.5450 94° East 510 587 33,000  Level FlightAware ADS-B
Sun 08:19:19 AM 39.7452 -101.4530 94° East 508 585 33,000  Level FlightAware ADS-B
Sun 08:19:49 AM 39.7403 -101.3620 94° East 504 580 33,000  Level FlightAware ADS-B
Sun 08:20:49 AM 39.7308 -101.1947 94° East 504 580 33,000  Level Denver Center
Sun 08:21:49 AM 39.7214 -101.0239 94° East 500 575 33,000  Level Denver Center
Sun 08:22:50 AM 39.7117 -100.8511 94° East 501 577 33,000  Level Denver Center
Sun 08:23:50 AM 39.6992 -100.6492 95° East 503 579 33,000  Level Denver Center
Sun 08:24:50 AM 39.6889 -100.4775 94° East 502 578 33,000  Level Denver Center
Sun 08:25:51 AM 39.6778 -100.3061 95° East 500 575 33,000  Level Denver Center
Sun 08:27:03 AM 39.6650 -100.1092 95° East 494 568 33,000  Level Denver Center
Sun 08:28:04 AM 39.6514 -99.8881 95° East 493 567 33,000  Level Denver Center
Sun 08:29:04 AM 39.6389 -99.7103 95° East 495 570 33,000  Level Denver Center
Sun 08:30:05 AM 39.6261 -99.5333 95° East 494 568 33,000  Level Denver Center
Sun 08:31:30 AM 39.6094 -99.2836 95° East 495 570 33,000  Level Denver Center
Sun 08:32:30 AM 39.5958 -99.1100 96° East 488 562 33,000  Level Denver Center
Sun 08:33:43 AM 39.5806 -98.9044 95° East 480 552 33,000  Level Denver Center
Sun 08:34:43 AM 39.5678 -98.7347 96° East 477 549 33,000  Level Denver Center
Sun 08:35:44 AM 39.5542 -98.5650 96° East 473 544 33,000  Level Denver Center
Sun 08:36:44 AM 39.5406 -98.3967 96° East 471 542 33,000  Level Denver Center
Sun 08:37:57 AM 39.5247 -98.1981 96° East 463 533 33,000  Level Denver Center
Sun 08:38:57 AM 39.5108 -98.0342 96° East 459 528 33,000  Level Denver Center
Sun 08:39:29 AM 39.5025 -97.9342 96° East 464 534 33,000  Level Minneapolis Center
Sun 08:39:54 AM 39.4978 -97.8650 95° East 462 532 33,000  Level Kansas City Center
Sun 08:40:55 AM 39.4844 -97.7028 96° East 456 525 33,000  Level Kansas City Center
Sun 08:41:56 AM 39.4706 -97.5428 96° East 450 518 33,000  Level Kansas City Center
Sun 08:42:57 AM 39.4569 -97.4011 97° East 445 512 33,000  Level Kansas City Center
Sun 08:43:58 AM 39.4411 -97.2217 96° East 448 516 33,000  Level Kansas City Center
Sun 08:44:59 AM 39.4281 -97.0667 96° East 451 519 33,000  Level Kansas City Center
Sun 08:45:59 AM 39.4122 -96.8892 97° East 448 516 33,000  Level Kansas City Center
Sun 08:47:00 AM 39.3964 -96.7350 98° East 450 518 33,000  Level Kansas City Center
Sun 08:48:01 AM 39.3831 -96.5825 96° East 448 516 33,000  Level Kansas City Center
Sun 08:49:02 AM 39.3667 -96.4194 97° East 447 514 33,000  Level Kansas City Center
Sun 08:50:03 AM 39.3508 -96.2597 97° East 448 516 33,000  Level Kansas City Center
Sun 08:51:04 AM 39.3328 -96.0989 98° East 450 518 33,000  Level Kansas City Center
Sun 08:52:05 AM 39.3153 -95.9214 97° East 447 514 33,000  Level Kansas City Center
Sun 08:53:06 AM 39.3003 -95.7703 97° East 444 511 33,000  Level Kansas City Center
Sun 08:54:07 AM 39.2839 -95.6189 98° East 444 511 33,000  Level Kansas City Center
Sun 08:55:08 AM 39.2653 -95.4386 98° East 445 512 33,000  Level Kansas City Center
Sun 08:56:09 AM 39.2483 -95.2783 98° East 451 519 33,000  Level Kansas City Center
Sun 09:01:32 AM 39.1540 -94.4320 98° East 438 504 33,000  Level FlightAware ADS-B
Sun 09:02:12 AM 39.1420 -94.3300 99° East 435 501 33,000  Level FlightAware ADS-B
Sun 09:02:57 AM 39.1290 -94.2170 98° East 433 498 33,000  Level FlightAware ADS-B
Sun 09:03:37 AM 39.1170 -94.1150 99° East 432 497 33,000  Level FlightAware ADS-B
Sun 09:04:17 AM 39.1050 -94.0130 99° East 433 498 33,000  Level FlightAware ADS-B
Sun 09:05:02 AM 39.0910 -93.8980 99° East 435 501 33,000  Level FlightAware ADS-B
Sun 09:05:42 AM 39.0780 -93.7940 99° East 436 502 33,000  Level FlightAware ADS-B
Sun 09:06:27 AM 39.0640 -93.6810 99° East 435 501 33,000  Level FlightAware ADS-B
Sun 09:07:07 AM 39.0520 -93.5790 99° East 434 499 33,000  Level FlightAware ADS-B
Sun 09:07:52 AM 39.0370 -93.4620 99° East 431 496 33,000  Level FlightAware ADS-B
Sun 09:08:32 AM 39.0250 -93.3610 99° East 433 498 33,000  Level FlightAware ADS-B
Sun 09:09:27 AM 39.0080 -93.2230 99° East 438 504 33,000  Level FlightAware ADS-B
Sun 09:10:22 AM 38.9900 -93.0810 99° East 435 501 33,000  Level FlightAware ADS-B
Sun 09:11:07 AM 38.9750 -92.9680 100° East 427 491 33,000  Level FlightAware ADS-B
Sun 09:11:47 AM 38.9620 -92.8680 99° East 423 487 33,000  Level FlightAware ADS-B
Sun 09:12:32 AM 38.9470 -92.7540 100° East 423 487 33,000  Level FlightAware ADS-B
Sun 09:13:07 AM 38.9360 -92.6700 100° East 422 486 33,000  Level FlightAware ADS-B
Sun 09:13:52 AM 38.9220 -92.5560 99° East 421 484 33,000  Level FlightAware ADS-B
Sun 09:14:32 AM 38.9080 -92.4550 100° East 423 487 33,000  Level FlightAware ADS-B
Sun 09:15:17 AM 38.8940 -92.3510 100° East 424 488 33,000  Level FlightAware ADS-B
Sun 09:15:57 AM 38.8810 -92.2520 100° East 421 484 33,000  Level FlightAware ADS-B
Sun 09:16:52 AM 38.8640 -92.1210 99° East 421 484 33,000  Level FlightAware ADS-B
Sun 09:17:32 AM 38.8530 -92.0370 100° East 421 484 33,000  Level FlightAware ADS-B
Sun 09:18:12 AM 38.8430 -91.9530 99° East 421 484 33,000  Level FlightAware ADS-B
Sun 09:18:52 AM 38.8330 -91.8690 99° East 421 484 33,000  Level FlightAware ADS-B
Sun 09:19:42 AM 38.8200 -91.7650 99° East 421 484 33,000  Level FlightAware ADS-B
Sun 09:20:22 AM 38.8090 -91.6810 100° East 421 484 33,000  Level FlightAware ADS-B
Sun 09:21:02 AM 38.7990 -91.5970 99° East 421 484 33,000  Level FlightAware ADS-B
Sun 09:21:42 AM 38.7890 -91.5130 99° East 421 484 33,000  Level FlightAware ADS-B
Sun 09:22:42 AM 38.7420 -91.2550 103° East 417 480 33,000  Level FlightAware ADS-B
Sun 09:23:47 AM 38.7190 -91.0940 100° East 419 482 33,000  Level FlightAware ADS-B
Sun 09:24:22 AM 38.7060 -91.0120 101° East 417 480 33,000  Level FlightAware ADS-B
Sun 09:25:22 AM 38.6860 -90.8720 100° East 412 474 33,000  Level FlightAware ADS-B
Sun 09:26:07 AM 38.6700 -90.7620 101° East 410 472 33,000  Level FlightAware ADS-B
Sun 09:26:47 AM 38.6550 -90.6650 101° East 408 470 33,000  Level FlightAware ADS-B
Sun 09:27:27 AM 38.6410 -90.5700 101° East 408 470 33,000  Level FlightAware ADS-B
Sun 09:28:17 AM 38.6240 -90.4570 101° East 408 470 33,000  Level FlightAware ADS-B
Sun 09:29:07 AM 38.6110 -90.3560 99° East 408 470 33,000  Level FlightAware ADS-B
Sun 09:29:47 AM 38.5990 -90.2750 101° East 408 470 33,000  Level FlightAware ADS-B
Sun 09:30:32 AM 38.5750 -90.1360 102° East 402 463 33,000  Level FlightAware ADS-B
Sun 09:31:12 AM 38.5610 -90.0450 101° East 400 460 33,000  Level FlightAware ADS-B
Sun 09:31:52 AM 38.5470 -89.9560 101° East 399 459 33,000  Level FlightAware ADS-B
Sun 09:32:37 AM 38.5300 -89.8450 101° East 393 452 33,000  Level FlightAware ADS-B
Sun 09:33:12 AM 38.5180 -89.7730 102° East 390 449 33,000  Level FlightAware ADS-B
Sun 09:33:52 AM 38.5030 -89.6760 101° East 387 445 33,000  Level FlightAware ADS-B
Sun 09:34:37 AM 38.4890 -89.5880 101° East 387 445 33,000  Level FlightAware ADS-B
Sun 09:35:17 AM 38.4780 -89.5120 100° East 387 445 33,000  Level FlightAware ADS-B
Sun 09:35:57 AM 38.4660 -89.4360 101° East 387 445 33,000  Level FlightAware ADS-B
Sun 09:36:57 AM 38.4360 -89.2610 102° East 384 442 33,000  Level FlightAware ADS-B
Sun 09:37:37 AM 38.4230 -89.1740 101° East 383 441 33,000  Level FlightAware ADS-B
Sun 09:38:17 AM 38.4160 -89.0870 96° East 384 442 33,000  Level FlightAware ADS-B
Sun 09:38:57 AM 38.4130 -88.9980 92° East 385 443 33,000  Level FlightAware ADS-B
Sun 09:39:57 AM 38.4070 -88.8580 93° East 385 443 33,000  Level FlightAware ADS-B
Sun 09:40:32 AM 38.4040 -88.7780 93° East 385 443 33,000  Level FlightAware ADS-B
Sun 09:41:12 AM 38.4000 -88.6900 93° East 383 441 33,000  Level FlightAware ADS-B
Sun 09:41:52 AM 38.3960 -88.5980 93° East 382 440 33,000  Level FlightAware ADS-B
Sun 09:42:42 AM 38.3900 -88.4840 94° East 379 436 33,000 -467 Level FlightAware ADS-B
Sun 09:43:22 AM 38.3860 -88.4000 93° East 371 427 32,300 -1,976 Descending FlightAware ADS-B
Sun 09:44:07 AM 38.3820 -88.3000 93° East 364 419 30,200 -2,259 Descending FlightAware ADS-B
Sun 09:44:47 AM 38.3780 -88.2150 93° East 359 413 29,100 -900 Descending FlightAware ADS-B
Sun 09:45:27 AM 38.3730 -88.1280 94° East 367 422 29,000 -71 Descending FlightAware ADS-B
Sun 09:46:12 AM 38.3680 -88.0280 94° East 387 445 29,000  Level FlightAware ADS-B
Sun 09:46:52 AM 38.3630 -87.9340 94° East 391 450 29,000  Level FlightAware ADS-B
Sun 09:47:32 AM 38.3590 -87.8460 93° East 392 451 29,000  Level FlightAware ADS-B
Sun 09:48:17 AM 38.3530 -87.7430 94° East 389 448 29,000  Level FlightAware ADS-B
Sun 09:48:57 AM 38.3480 -87.6490 94° East 392 451 29,000  Level FlightAware ADS-B
Sun 09:49:42 AM 38.3430 -87.5450 93° East 394 453 29,000 -75 Level FlightAware ADS-B
Sun 09:50:17 AM 38.3380 -87.4640 94° East 393 452 28,900 -1,200 Descending FlightAware ADS-B
Sun 09:50:57 AM 38.3330 -87.3740 94° East 391 450 27,500 -2,329 Descending FlightAware ADS-B
Sun 09:51:42 AM 38.3270 -87.2720 94° East 377 434 25,600 -2,471 Descending FlightAware ADS-B
Sun 09:52:22 AM 38.3160 -87.1840 99° East 366 421 24,000 -2,400 Descending FlightAware ADS-B
Sun 09:53:02 AM 38.3050 -87.0990 99° East 361 415 22,400 -2,400 Descending FlightAware ADS-B
Sun 09:53:37 AM 38.2960 -87.0280 99° East 358 412 21,000 -2,320 Descending FlightAware ADS-B
Sun 09:54:17 AM 38.2860 -86.9460 99° East 353 406 19,500 -2,229 Descending FlightAware ADS-B
Sun 09:54:47 AM 38.2780 -86.8860 100° East 350 403 18,400 -2,400 Descending FlightAware ADS-B
Sun 09:55:32 AM 38.2660 -86.7920 99° East 345 397 16,500 -2,400 Descending FlightAware ADS-B
Sun 09:56:22 AM 38.2530 -86.6960 100° East 344 396 14,600 -2,337 Descending FlightAware ADS-B
Sun 09:57:07 AM 38.2510 -86.6050 92° East 352 405 12,800 -2,200 Descending FlightAware ADS-B
Sun 09:57:52 AM 38.2730 -86.5180 72° East 341 392 11,300 -1,140 Descending FlightAware ADS-B
Sun 09:58:47 AM 38.2980 -86.4220 72° East 316 364 10,900 -960 Descending FlightAware ADS-B
Sun 09:59:32 AM 38.3150 -86.3510 73° East 279 321 9,700 -1,029 Descending FlightAware ADS-B
Sun 09:59:57 AM 38.3240 -86.3140 73° East 279 321 9,700  Level FlightAware ADS-B
Sun 10:00:17 AM 38.3310 -86.2870 72° East 279 321 9,700  Level FlightAware ADS-B
Sun 10:00:37 AM 38.3370 -86.2600 74° East 279 321 9,700  Level FlightAware ADS-B
Sun 10:01:07 AM 38.3470 -86.2200 72° East 279 321 9,700 -3,600 Level FlightAware ADS-B
Sun 10:01:27 AM 38.3550 -86.1760 77° East 262 302 6,700 -3,086 Descending FlightAware ADS-B
Sun 10:02:17 AM 38.3730 -86.0970 74° East 255 293 6,100 -480 Descending FlightAware ADS-B
Sun 10:02:42 AM 38.3810 -86.0610 74° East 255 293 6,100  Level FlightAware ADS-B
Sun 10:02:57 AM 38.3860 -86.0400 73° East 255 293 6,100  Level FlightAware ADS-B
Sun 10:03:22 AM 38.3950 -86.0030 73° East 245 282 6,100  Level FlightAware ADS-B
Sun 10:03:52 AM 38.4040 -85.9630 74° East 234 269 6,100  Level FlightAware ADS-B
Sun 10:04:17 AM 38.4150 -85.9330 65° Northeast 236 272 6,100  Level FlightAware ADS-B
Sun 10:04:37 AM 38.4330 -85.9210 28° Northeast 246 283 6,100 -120 Level FlightAware ADS-B
Sun 10:05:07 AM 38.4670 -85.9330 345° North 250 288 6,000 -1,286 Descending FlightAware ADS-B
Sun 10:05:47 AM 38.5100 -85.9240 North 239 275 4,600 -1,800 Descending FlightAware ADS-B
Sun 10:05:57 AM 38.5160 -85.9120 57° Northeast 225 259 4,500 -900 Descending FlightAware ADS-B
Sun 10:06:07 AM 38.5170 -85.9000 84° East 215 247 4,300 -800 Descending FlightAware ADS-B
Sun 10:06:27 AM 38.5090 -85.8770 114° Southeast 201 231 4,100 -600 Descending FlightAware ADS-B
Sun 10:06:57 AM 38.4900 -85.8570 141° Southeast 188 216 3,800 -800 Descending FlightAware ADS-B
Sun 10:07:12 AM 38.4790 -85.8480 147° Southeast 190 219 3,500 -1,000 Descending FlightAware ADS-B
Sun 10:07:27 AM 38.4670 -85.8420 159° South 188 216 3,300 -686 Descending FlightAware ADS-B
Sun 10:07:47 AM 38.4500 -85.8350 162° South 182 209 3,100 -218 Descending FlightAware ADS-B
Sun 10:08:22 AM 38.4210 -85.8250 165° South 187 215 3,100  Level FlightAware ADS-B
Sun 10:08:32 AM 38.4140 -85.8230 167° South 190 219 3,100  Level FlightAware ADS-B
Sun 10:09:02 AM 38.3850 -85.8150 168° South 190 219 3,100  Level FlightAware ADS-B
Sun 10:09:32 AM 38.3600 -85.8070 166° South 181 208 3,100  Level FlightAware ADS-B
Sun 10:09:57 AM 38.3390 -85.7990 163° South 176 203 3,100  Level FlightAware ADS-B
Sun 10:10:27 AM 38.3170 -85.7920 166° South 162 186 3,100 -400 Level FlightAware ADS-B
Sun 10:10:57 AM 38.2960 -85.7850 165° South 146 168 2,700 -764 Descending FlightAware ADS-B
Sun 10:11:22 AM 38.2820 -85.7800 164° South 118 136 2,400 -545 Descending FlightAware ADS-B
Sun 10:11:52 AM 38.2660 -85.7750 166° South 115 132 2,200 -500 Descending FlightAware ADS-B
Sun 10:12:22 AM 38.2500 -85.7690 164° South 121 139 1,900 -655 Descending FlightAware ADS-B
Sun 10:12:47 AM 38.2360 -85.7650 167° South 121 139 1,600 -655 Descending FlightAware ADS-B
Sun 10:13:17 AM 38.2200 -85.7600 166° South 122 140 1,300 -655 Descending FlightAware ADS-B
Sun 10:13:42 AM 38.2060 -85.7550 164° South 127 146 1,000 -667 Descending FlightAware ADS-B
Sun 10:14:02 AM 38.1940 -85.7510 165° South 129 148 800 -750 Descending FlightAware ADS-B
Sun 10:14:22 AM 38.1840 -85.7480 167° South 130 150 500 -900 Descending FlightAware ADS-B

Login

Don't have an account? Register now (free) for customized features, flight alerts, and more!